Time;durP1;ratioP1;P1;durP2;ratioP2;P2;SDS_P1;SDS_P2;PMS_P1;PMS_P2;Temp;Humidity;BMP_temperature;BMP_pressure;BME280_temperature;BME280_humidity;BME280_pressure;Samples;Min_cycle;Max_cycle;Signal;HPM_P1;HPM_P2
2022/06/22 00:01:51;;;;;;;4.30;2.37;;;24.10;48.50;25.50;100449.00;;;;5066886;28;20260;-49
2022/06/22 00:04:26;;;;;;;2.53;2.17;;;24.10;48.50;25.40;100437.00;;;;5066913;28;20189;-49
2022/06/22 00:06:58;;;;;;;2.40;2.20;;;24.10;48.60;25.40;100438.00;;;;5051731;28;20161;-49
2022/06/22 00:09:30;;;;;;;2.53;2.33;;;24.10;48.60;25.40;100453.00;;;;5050825;28;20463;-49
2022/06/22 00:11:55;;;;;;;4.50;2.47;;;24.10;48.60;25.40;100444.00;;;;5068060;28;20170;-48
2022/06/22 00:14:46;;;;;;;2.70;2.50;;;24.10;48.60;25.40;100431.00;;;;5066093;28;20311;-49
2022/06/22 00:17:20;;;;;;;2.33;2.10;;;24.00;48.50;25.40;100420.00;;;;5066827;28;20150;-48
2022/06/22 00:19:47;;;;;;;2.53;2.17;;;24.00;48.50;25.30;100431.00;;;;5066397;28;20160;-48
2022/06/22 00:22:21;;;;;;;2.70;2.20;;;24.00;48.50;25.30;100438.00;;;;5066284;28;20840;-48
2022/06/22 00:25:04;;;;;;;2.20;2.00;;;24.00;48.40;25.30;100423.00;;;;5067401;28;20189;-48
2022/06/22 00:27:36;;;;;;;3.27;2.37;;;24.10;48.30;25.30;100433.00;;;;5076826;28;20257;-48
2022/06/22 00:30:15;;;;;;;2.90;2.37;;;23.90;48.00;25.30;100434.00;;;;5073221;28;20236;-49
2022/06/22 00:32:54;;;;;;;2.57;2.30;;;23.80;48.10;25.30;100430.00;;;;5067323;28;20182;-49
2022/06/22 00:35:44;;;;;;;3.10;2.20;;;23.90;48.50;25.20;100434.00;;;;5067269;28;20635;-49
2022/06/22 00:38:32;;;;;;;2.93;2.60;;;23.90;48.40;25.20;100446.00;;;;5066932;28;20513;-49
2022/06/22 00:41:11;;;;;;;2.67;2.30;;;23.80;48.90;25.20;100454.00;;;;5051893;28;20654;-48
2022/06/22 00:43:36;;;;;;;3.00;2.40;;;23.80;48.90;25.20;100453.00;;;;5066036;28;20242;-48
2022/06/22 00:46:03;;;;;;;2.40;2.20;;;23.90;48.70;25.20;100444.00;;;;5049865;28;20170;-48
2022/06/22 00:48:33;;;;;;;2.60;2.20;;;24.00;48.60;25.20;100443.00;;;;5032471;28;20633;-48
2022/06/22 00:51:12;;;;;;;2.33;2.10;;;23.90;48.50;25.10;100438.00;;;;5049295;28;20181;-47
2022/06/22 00:53:41;;;;;;;3.13;2.30;;;23.90;48.60;25.10;100430.00;;;;5066194;28;20205;-48
2022/06/22 00:56:33;;;;;;;2.57;2.33;;;23.90;48.60;25.10;100423.00;;;;5049394;28;20177;-49
2022/06/22 00:59:24;;;;;;;2.47;2.27;;;23.90;48.60;25.10;100420.00;;;;5064986;28;20245;-48
2022/06/22 01:02:14;;;;;;;2.77;2.33;;;23.90;48.70;25.10;100406.00;;;;5051938;28;20196;-48
2022/06/22 01:04:50;;;;;;;3.10;2.20;;;23.90;48.70;25.00;100402.00;;;;5065555;28;20347;-49
2022/06/22 01:07:29;;;;;;;2.63;2.33;;;23.90;48.70;25.00;100393.00;;;;5050328;28;20211;-48
2022/06/22 01:10:03;;;;;;;3.23;2.20;;;23.90;48.70;25.00;100408.00;;;;5048919;28;20165;-49
2022/06/22 01:13:00;;;;;;;3.20;2.30;;;23.80;48.70;25.00;100416.00;;;;5065547;28;20212;-48
2022/06/22 01:15:54;;;;;;;3.23;2.33;;;23.60;48.90;24.90;100392.00;;;;5064361;28;20769;-48
2022/06/22 01:18:27;;;;;;;2.50;2.30;;;23.70;48.80;24.90;100427.00;;;;5050192;28;20154;-48
2022/06/22 01:21:08;;;;;;;2.60;2.37;;;23.80;48.90;24.90;100422.00;;;;5049038;28;20205;-49
2022/06/22 01:24:16;;;;;;;2.23;2.03;;;23.80;48.90;24.80;100428.00;;;;5065197;28;20205;-48
2022/06/22 01:27:20;;;;;;;2.83;2.30;;;23.80;48.70;24.80;100411.00;;;;5066241;28;20157;-48
2022/06/22 01:29:54;;;;;;;2.40;2.20;;;23.80;48.70;24.80;100421.00;;;;5066629;28;20231;-48
2022/06/22 01:32:29;;;;;;;2.30;2.10;;;23.70;49.20;24.70;100418.00;;;;5065076;28;20158;-48
2022/06/22 01:34:59;;;;;;;2.40;2.20;;;23.70;48.50;24.70;100419.00;;;;5049161;28;20182;-48
2022/06/22 01:37:31;;;;;;;3.57;2.40;;;23.70;48.50;24.70;100402.00;;;;5064997;28;20158;-49
2022/06/22 01:40:15;;;;;;;2.63;2.40;;;23.70;48.40;24.70;100380.00;;;;5066163;28;20183;-47
2022/06/22 01:42:50;;;;;;;2.83;2.20;;;23.70;48.40;24.70;100379.00;;;;5066050;28;20169;-48
2022/06/22 01:45:21;;;;;;;2.60;2.37;;;23.70;48.50;24.60;100300.00;;;;5049034;28;20743;-49
2022/06/22 01:47:59;;;;;;;3.33;2.30;;;23.60;48.40;24.60;100370.00;;;;5065898;28;20174;-49
2022/06/22 01:51:08;;;;;;;3.23;2.53;;;23.60;48.30;24.60;100372.00;;;;5049496;28;20223;-49
2022/06/22 01:54:09;;;;;;;2.40;2.20;;;23.60;48.40;24.60;100378.00;;;;5051227;28;20213;-49
2022/06/22 01:56:54;;;;;;;2.60;2.30;;;23.50;48.40;24.50;100377.00;;;;5066638;28;20177;-49
2022/06/22 01:59:34;;;;;;;2.57;2.37;;;23.40;48.60;24.50;100359.00;;;;5067379;28;20154;-48
2022/06/22 02:02:22;;;;;;;2.57;2.37;;;23.40;48.60;24.50;100325.00;;;;5067382;28;20704;-48
2022/06/22 02:04:53;;;;;;;2.63;2.17;;;23.40;48.60;24.50;100383.00;;;;5049558;28;20206;-48
2022/06/22 02:07:44;;;;;;;2.97;2.40;;;23.40;48.60;24.40;100384.00;;;;5065561;28;20249;-48
2022/06/22 02:10:43;;;;;;;2.93;2.23;;;23.40;48.50;24.40;100385.00;;;;5049205;28;20192;-48
2022/06/22 02:13:40;;;;;;;2.80;2.40;;;23.40;48.50;24.40;100394.00;;;;5064262;28;20185;-50
2022/06/22 02:16:17;;;;;;;2.50;2.23;;;23.40;48.60;24.40;100397.00;;;;5064744;28;20165;-47
2022/06/22 02:18:48;;;;;;;2.50;2.10;;;23.40;48.60;24.30;100399.00;;;;5065532;28;20168;-48
2022/06/22 02:21:39;;;;;;;2.40;2.20;;;23.40;48.60;24.30;100419.00;;;;5078342;28;20174;-48
2022/06/22 02:24:17;;;;;;;2.80;2.40;;;23.40;48.60;24.30;100427.00;;;;5078289;28;20197;-48
2022/06/22 02:27:03;;;;;;;2.90;2.20;;;23.40;48.60;24.30;100415.00;;;;5069151;28;20162;-49
2022/06/22 02:29:34;;;;;;;2.60;2.40;;;23.30;48.50;24.20;100414.00;;;;5068635;28;20162;-47
2022/06/22 02:32:03;;;;;;;2.50;2.30;;;23.30;48.50;24.20;100404.00;;;;5074137;28;20262;-49
2022/06/22 02:34:31;;;;;;;2.47;2.27;;;23.30;48.50;24.20;100392.00;;;;5069907;28;20206;-49
2022/06/22 02:36:57;;;;;;;2.30;2.10;;;23.30;48.50;24.20;100391.00;;;;5065894;28;20171;-48
2022/06/22 02:39:24;;;;;;;2.83;2.23;;;23.30;48.50;24.20;100381.00;;;;5064241;28;20170;-49
2022/06/22 02:44:37;;;;;;;2.47;2.27;;;23.20;48.40;24.10;100389.00;;;;5050328;28;20629;-47
2022/06/22 02:47:21;;;;;;;2.90;2.30;;;23.10;48.50;24.10;100405.00;;;;5047882;28;20256;-49
2022/06/22 02:50:17;;;;;;;2.33;2.13;;;23.10;48.60;24.10;100412.00;;;;5064352;28;20154;-48
2022/06/22 02:53:00;;;;;;;4.00;2.23;;;23.10;48.60;24.10;100402.00;;;;5064688;28;20536;-48
2022/06/22 02:55:29;;;;;;;2.93;2.20;;;23.10;48.40;24.00;100387.00;;;;5065670;28;20231;-48
2022/06/22 02:57:57;;;;;;;2.50;2.10;;;23.10;48.50;24.00;100379.00;;;;5064528;28;20201;-47
2022/06/22 03:00:29;;;;;;;2.87;2.53;;;23.10;48.50;24.00;100384.00;;;;5065881;28;20177;-49
2022/06/22 03:03:01;;;;;;;3.43;2.37;;;23.10;48.50;24.00;100384.00;;;;5066052;28;20161;-48
2022/06/22 03:05:27;;;;;;;2.20;2.00;;;23.00;48.60;24.00;100373.00;;;;5069019;28;20197;-49
2022/06/22 03:07:55;;;;;;;3.17;2.27;;;22.90;48.80;24.00;100374.00;;;;5076252;28;20177;-50
2022/06/22 03:10:49;;;;;;;3.43;2.40;;;23.00;49.40;24.00;100368.00;;;;5090540;28;20177;-48
2022/06/22 03:13:40;;;;;;;2.57;2.37;;;23.00;48.50;23.90;100367.00;;;;5065054;28;20198;-49
2022/06/22 03:16:08;;;;;;;2.90;2.33;;;23.00;48.50;23.90;100357.00;;;;5064035;28;20169;-49
2022/06/22 03:18:35;;;;;;;2.43;2.23;;;23.00;48.50;23.90;100343.00;;;;5047591;28;20188;-49
2022/06/22 03:21:03;;;;;;;2.40;2.20;;;23.00;48.30;23.90;100353.00;;;;5048636;28;20166;-48
2022/06/22 03:23:52;;;;;;;3.17;2.10;;;23.00;48.20;23.80;100344.00;;;;5051150;28;20210;-49
2022/06/22 03:26:30;;;;;;;3.83;2.37;;;23.00;48.30;23.80;100349.00;;;;5068841;28;20166;-48
2022/06/22 03:29:59;;;;;;;2.40;2.20;;;22.90;48.20;23.80;100349.00;;;;5052149;28;20188;-49
2022/06/22 03:32:34;;;;;;;3.47;2.10;;;22.90;48.20;23.70;100337.00;;;;5063653;28;20189;-48
2022/06/22 03:35:26;;;;;;;2.30;2.10;;;22.90;48.20;23.70;100341.00;;;;5050837;28;20193;-49
2022/06/22 03:38:19;;;;;;;2.73;2.20;;;22.80;48.10;23.70;100351.00;;;;5050838;28;20197;-48
2022/06/22 03:41:02;;;;;;;3.07;2.30;;;22.70;48.30;23.70;100366.00;;;;5053383;28;20292;-49
2022/06/22 03:43:40;;;;;;;2.50;2.30;;;22.70;48.70;23.70;100363.00;;;;5052455;28;20258;-48
2022/06/22 03:46:24;;;;;;;3.30;2.13;;;22.70;48.60;23.70;100344.00;;;;5050935;28;20158;-50
2022/06/22 03:49:07;;;;;;;2.97;2.70;;;22.80;48.50;23.60;100354.00;;;;5052284;28;20184;-48
2022/06/22 03:51:47;;;;;;;4.90;3.23;;;22.70;48.30;23.60;100349.00;;;;5067963;28;20167;-49
2022/06/22 03:54:29;;;;;;;2.80;2.60;;;22.70;48.40;23.60;100366.00;;;;5051093;28;20774;-49
2022/06/22 03:56:58;;;;;;;3.00;2.53;;;22.60;48.70;23.60;100367.00;;;;5066897;28;20160;-48
2022/06/22 03:59:24;;;;;;;3.07;2.50;;;22.60;48.80;23.60;100368.00;;;;5067973;28;20212;-49
2022/06/22 04:01:50;;;;;;;8.47;7.13;;;22.60;48.70;23.60;100366.00;;;;5066952;28;20806;-48
2022/06/22 04:04:15;;;;;;;4.20;3.80;;;22.60;48.50;23.50;100382.00;;;;5050269;28;20243;-49
2022/06/22 04:06:45;;;;;;;6.23;3.70;;;22.70;48.70;23.50;100375.00;;;;5068247;28;20203;-47
2022/06/22 04:09:17;;;;;;;2.83;2.57;;;22.60;48.70;23.50;100383.00;;;;5066867;28;20260;-48
2022/06/22 04:11:54;;;;;;;2.90;2.60;;;22.60;48.80;23.50;100389.00;;;;5067604;28;20158;-48
2022/06/22 04:14:30;;;;;;;3.40;2.80;;;22.60;48.80;23.50;100322.00;;;;5070723;28;20216;-47
2022/06/22 04:17:00;;;;;;;3.77;2.60;;;22.50;48.50;23.50;100392.00;;;;5055249;28;20161;-49
2022/06/22 04:19:57;;;;;;;3.33;2.50;;;22.50;48.60;23.50;100401.00;;;;5062672;28;20194;-48
2022/06/22 04:22:23;;;;;;;6.50;2.80;;;22.50;48.70;23.30;100405.00;;;;5086682;28;20991;-48
2022/06/22 04:25:27;;;;;;;7.83;2.90;;;22.50;48.70;23.40;100411.00;;;;5070116;28;20193;-49
2022/06/22 04:27:54;;;;;;;5.77;2.53;;;22.50;48.70;23.40;100408.00;;;;5086874;28;20183;-49
2022/06/22 04:30:29;;;;;;;6.07;2.80;;;22.50;48.70;23.30;100405.00;;;;5053383;28;20177;-49
2022/06/22 04:33:32;;;;;;;5.77;3.00;;;22.50;48.60;23.30;100406.00;;;;5069587;28;20231;-48
2022/06/22 04:36:08;;;;;;;7.47;2.80;;;22.50;48.70;23.20;100403.00;;;;5086813;28;20171;-47
2022/06/22 04:39:27;;;;;;;5.83;2.60;;;22.50;48.90;23.20;100402.00;;;;5086038;28;20183;-48
2022/06/22 04:41:53;;;;;;;4.50;2.70;;;22.40;48.90;23.20;100396.00;;;;5074127;28;20263;-50
2022/06/22 04:44:24;;;;;;;3.37;2.40;;;22.40;48.90;23.20;100415.00;;;;5086339;28;20193;-48
2022/06/22 04:46:56;;;;;;;4.03;2.60;;;22.40;49.10;23.20;100400.00;;;;5077973;28;20204;-48
2022/06/22 04:49:30;;;;;;;5.77;2.80;;;22.40;49.20;23.20;100408.00;;;;5063003;28;20208;-48
2022/06/22 04:52:21;;;;;;;5.70;2.40;;;22.40;49.20;23.20;100406.00;;;;5086073;28;20202;-49
2022/06/22 04:54:50;;;;;;;3.23;2.60;;;22.40;49.00;23.20;100404.00;;;;5085785;28;20208;-48
2022/06/22 04:57:37;;;;;;;5.13;2.60;;;22.40;49.10;23.20;100405.00;;;;5069061;28;20183;-48
2022/06/22 05:00:28;;;;;;;5.03;2.60;;;22.40;49.30;23.20;100413.00;;;;5069032;28;20162;-48
2022/06/22 05:03:09;;;;;;;2.67;2.20;;;22.30;49.20;23.10;100410.00;;;;5086078;28;20161;-48
2022/06/22 05:05:35;;;;;;;3.20;2.50;;;22.30;49.10;23.00;100409.00;;;;5070701;28;20173;-48
2022/06/22 05:08:24;;;;;;;3.07;2.50;;;22.30;49.20;23.00;100419.00;;;;5068549;28;20161;-48
2022/06/22 05:11:00;;;;;;;5.27;2.60;;;22.30;49.30;23.00;100416.00;;;;5086009;28;20602;-49
2022/06/22 05:13:36;;;;;;;3.13;2.73;;;22.30;49.30;23.00;100417.00;;;;5069336;28;20705;-48
2022/06/22 05:16:04;;;;;;;2.77;2.47;;;22.30;49.60;23.00;100410.00;;;;5068946;28;20750;-48
2022/06/22 05:18:33;;;;;;;2.80;2.30;;;22.30;49.50;23.00;100414.00;;;;5051804;28;20157;-49
2022/06/22 05:21:17;;;;;;;4.20;2.60;;;22.20;49.50;23.00;100414.00;;;;5086351;28;20193;-48
2022/06/22 05:23:50;;;;;;;2.97;2.50;;;22.20;49.80;23.00;100417.00;;;;5068270;28;20224;-48
2022/06/22 05:26:18;;;;;;;3.17;2.40;;;22.20;50.30;23.00;100416.00;;;;5085271;28;20222;-48
2022/06/22 05:28:55;;;;;;;3.20;2.47;;;22.20;49.80;23.00;100417.00;;;;5084704;28;20268;-49
2022/06/22 05:31:31;;;;;;;3.43;2.50;;;22.20;49.80;22.90;100415.00;;;;5085149;28;20191;-48
2022/06/22 05:34:01;;;;;;;2.80;2.20;;;22.20;49.80;22.90;100414.00;;;;5084748;28;20253;-48
2022/06/22 05:36:27;;;;;;;3.73;2.40;;;22.20;50.30;22.90;100413.00;;;;5084923;28;20176;-48
2022/06/22 05:38:55;;;;;;;2.53;2.33;;;22.20;50.30;22.90;100415.00;;;;5084818;28;20165;-48
2022/06/22 05:41:26;;;;;;;2.80;2.43;;;22.20;50.10;22.90;100395.00;;;;5068852;28;20596;-48
2022/06/22 05:43:54;;;;;;;3.33;2.47;;;22.10;50.00;22.80;100406.00;;;;5069436;28;20271;-48
2022/06/22 05:46:19;;;;;;;2.93;2.33;;;22.10;50.30;22.80;100417.00;;;;5051692;28;20179;-48
2022/06/22 05:48:47;;;;;;;3.07;2.20;;;22.10;50.20;22.80;100392.00;;;;5067239;28;20165;-47
2022/06/22 05:51:38;;;;;;;2.60;2.40;;;22.10;50.20;22.70;100412.00;;;;5068092;28;20165;-49
2022/06/22 05:54:20;;;;;;;3.27;2.30;;;22.10;50.00;22.70;100410.00;;;;5084379;28;20286;-48
2022/06/22 05:56:55;;;;;;;4.17;2.70;;;22.00;50.20;22.70;100412.00;;;;5070211;28;20191;-48
2022/06/22 05:59:55;;;;;;;3.57;2.70;;;22.00;50.80;22.80;100414.00;;;;5084599;28;20167;-48
2022/06/22 06:02:43;;;;;;;5.13;2.50;;;22.10;50.80;22.70;100428.00;;;;5057277;28;20199;-48
2022/06/22 06:05:29;;;;;;;6.63;2.40;;;22.00;50.90;22.70;100414.00;;;;5085724;28;20254;-48
2022/06/22 06:07:57;;;;;;;2.83;2.30;;;22.00;50.70;22.70;100426.00;;;;5085245;28;20523;-51
2022/06/22 06:10:42;;;;;;;2.60;2.30;;;21.90;51.00;22.70;100428.00;;;;5068075;28;20698;-48
2022/06/22 06:13:40;;;;;;;3.90;2.60;;;22.00;51.30;22.70;100427.00;;;;5085512;28;20204;-49
2022/06/22 06:16:21;;;;;;;4.00;2.50;;;22.00;51.90;22.70;100431.00;;;;5084845;28;20173;-49
2022/06/22 06:18:46;;;;;;;2.87;2.40;;;22.00;52.10;22.70;100427.00;;;;5081490;28;20160;-47
2022/06/22 06:21:19;;;;;;;2.87;2.30;;;21.90;52.00;22.70;100435.00;;;;5090308;28;20392;-50
2022/06/22 06:24:05;;;;;;;3.60;2.37;;;22.00;52.30;22.60;100429.00;;;;5087766;28;20673;-49
2022/06/22 06:27:47;;;;;;;2.63;2.23;;;21.90;51.80;22.60;100419.00;;;;5091249;28;20173;-50
2022/06/22 06:29:56;;;;;;;2.90;2.30;;;21.90;52.00;22.60;100418.00;;;;5083248;28;20421;-49
2022/06/22 06:32:34;;;;;;;3.13;2.33;;;21.80;52.30;22.60;100414.00;;;;5078334;28;20148;-48
2022/06/22 06:35:19;;;;;;;2.53;2.23;;;21.90;52.10;22.60;100415.00;;;;5089922;28;20204;-48
2022/06/22 06:38:18;;;;;;;3.40;2.30;;;21.90;52.10;22.60;100420.00;;;;5073754;28;20165;-48
2022/06/22 06:41:03;;;;;;;3.17;2.20;;;21.80;52.40;22.60;100416.00;;;;5086441;28;20180;-48
2022/06/22 06:43:52;;;;;;;3.07;2.33;;;21.80;52.20;22.60;100413.00;;;;5068782;28;20246;-48
2022/06/22 06:46:38;;;;;;;3.07;2.50;;;21.80;52.90;22.60;100399.00;;;;5084858;28;20157;-48
2022/06/22 06:49:35;;;;;;;3.90;2.40;;;21.90;52.50;22.60;100413.00;;;;5069974;28;20157;-48
2022/06/22 06:52:41;;;;;;;3.07;2.40;;;21.90;52.50;22.60;100388.00;;;;5085695;28;20171;-49
2022/06/22 06:55:34;;;;;;;3.03;2.27;;;21.80;52.70;22.50;100405.00;;;;5073073;28;20230;-48
2022/06/22 06:58:22;;;;;;;2.60;2.30;;;21.80;52.80;22.50;100401.00;;;;5089754;28;20366;-48
2022/06/22 07:00:47;;;;;;;3.23;2.37;;;21.80;52.70;22.50;100405.00;;;;5072495;28;20165;-48
2022/06/22 07:03:26;;;;;;;3.60;2.20;;;21.80;52.90;22.50;100401.00;;;;5089533;28;20180;-49
2022/06/22 07:05:52;;;;;;;3.13;2.37;;;21.80;53.40;22.60;100414.00;;;;5071507;28;20160;-48
2022/06/22 07:08:28;;;;;;;4.40;2.70;;;21.80;52.70;22.60;100407.00;;;;5088590;28;20169;-48
2022/06/22 07:11:10;;;;;;;3.33;2.30;;;21.80;54.00;22.60;100389.00;;;;5070906;28;20252;-47
2022/06/22 07:13:52;;;;;;;3.30;2.40;;;21.80;53.30;22.60;100387.00;;;;5072083;28;20754;-47
2022/06/22 07:16:21;;;;;;;2.93;2.27;;;21.80;53.20;22.60;100392.00;;;;5087924;28;20650;-48
2022/06/22 07:19:05;;;;;;;3.37;2.67;;;21.80;52.80;22.60;100398.00;;;;5087335;28;20229;-48
2022/06/22 07:21:55;;;;;;;3.73;2.50;;;21.80;52.60;22.60;100393.00;;;;5087803;28;20145;-49
2022/06/22 07:24:42;;;;;;;2.97;2.47;;;21.80;52.90;22.60;100398.00;;;;5086810;28;20232;-47
2022/06/22 07:27:34;;;;;;;3.60;2.40;;;21.70;53.20;22.60;100383.00;;;;5088874;28;20179;-48
2022/06/22 07:30:35;;;;;;;2.67;2.30;;;21.70;53.50;22.60;100385.00;;;;5087792;28;20169;-48
2022/06/22 07:33:23;;;;;;;3.50;2.50;;;21.70;53.40;22.60;100390.00;;;;5088178;28;20271;-49
2022/06/22 07:36:07;;;;;;;3.87;2.50;;;21.70;53.20;22.50;100388.00;;;;5087333;28;20172;-48
2022/06/22 07:39:01;;;;;;;3.50;2.60;;;21.70;53.20;22.60;100401.00;;;;5088768;28;20326;-48
2022/06/22 07:41:29;;;;;;;2.53;2.20;;;21.80;53.40;22.60;100395.00;;;;5059726;28;20245;-48
2022/06/22 07:44:04;;;;;;;3.53;2.80;;;21.80;53.30;22.60;100404.00;;;;5031858;28;20283;-48
2022/06/22 07:46:48;;;;;;;2.83;2.50;;;21.80;53.10;22.60;100403.00;;;;5122708;27;20148;-48
2022/06/22 07:49:19;;;;;;;3.70;2.60;;;21.80;54.00;22.70;100412.00;;;;5115743;27;20160;-48
2022/06/22 07:51:54;;;;;;;3.83;2.60;;;21.90;53.70;22.70;100410.00;;;;5105162;27;20598;-48
2022/06/22 07:54:32;;;;;;;2.60;2.40;;;21.90;54.10;22.70;100421.00;;;;5093042;28;20234;-48
2022/06/22 07:57:11;;;;;;;3.87;2.53;;;21.90;53.90;22.70;100426.00;;;;5125970;27;20159;-48
2022/06/22 07:59:55;;;;;;;4.40;2.70;;;21.90;54.30;22.70;100346.00;;;;5108017;28;20167;-49
2022/06/22 08:02:25;;;;;;;4.47;2.80;;;21.90;54.90;22.70;100421.00;;;;5126536;27;20165;-48
2022/06/22 08:04:56;;;;;;;5.33;2.47;;;21.90;55.20;22.30;100416.00;;;;5111400;28;20645;-48
2022/06/22 08:07:35;;;;;;;6.27;2.70;;;21.90;55.10;22.70;100408.00;;;;5127014;27;20168;-48
2022/06/22 08:10:15;;;;;;;2.53;2.20;;;21.90;55.50;22.70;100407.00;;;;5125208;27;20168;-48
2022/06/22 08:13:08;;;;;;;4.37;2.40;;;21.90;55.20;22.70;100401.00;;;;5127361;27;20533;-48
2022/06/22 08:15:50;;;;;;;7.20;2.60;;;21.90;55.50;22.80;100396.00;;;;5114985;27;20585;-48
2022/06/22 08:18:15;;;;;;;3.00;2.20;;;21.90;55.40;22.80;100404.00;;;;5104569;28;20190;-47
2022/06/22 08:20:43;;;;;;;4.37;2.57;;;21.90;55.50;22.80;100394.00;;;;5090837;28;20180;-45
2022/06/22 08:23:17;;;;;;;4.30;2.30;;;21.90;56.10;22.80;100397.00;;;;5106082;28;20754;-45
2022/06/22 08:25:46;;;;;;;8.37;2.60;;;22.00;56.10;22.80;100399.00;;;;5103634;28;20220;-45
2022/06/22 08:28:18;;;;;;;5.03;2.60;;;22.00;56.20;22.80;100396.00;;;;5092413;28;20180;-46
2022/06/22 08:30:44;;;;;;;4.17;2.40;;;22.10;56.30;22.90;100403.00;;;;5097455;28;20196;-46
2022/06/22 08:33:16;;;;;;;6.07;2.23;;;22.10;56.10;22.90;100387.00;;;;5089464;28;20245;-46
2022/06/22 08:35:57;;;;;;;4.10;2.40;;;22.10;56.10;22.90;100407.00;;;;5088602;28;20175;-46
2022/06/22 08:38:29;;;;;;;3.30;2.30;;;22.10;56.10;22.90;100413.00;;;;5105254;28;20613;-46
2022/06/22 08:41:04;;;;;;;3.27;2.40;;;22.10;56.30;22.90;100414.00;;;;5104713;28;20177;-46
2022/06/22 08:43:52;;;;;;;4.10;2.20;;;22.20;57.00;23.00;100405.00;;;;5012970;28;20710;-46
2022/06/22 08:46:36;;;;;;;2.40;2.20;;;22.20;57.40;23.00;100408.00;;;;5088438;28;20218;-48
2022/06/22 08:49:46;;;;;;;3.30;2.40;;;22.20;57.50;23.00;100401.00;;;;5088778;28;20533;-45
2022/06/22 08:52:40;;;;;;;3.77;2.30;;;22.30;57.80;23.00;100404.00;;;;5069192;28;20213;-45
2022/06/22 08:55:23;;;;;;;5.57;2.50;;;22.30;58.10;23.10;100402.00;;;;5065238;28;20195;-47
2022/06/22 08:58:17;;;;;;;2.57;2.30;;;22.30;58.40;23.10;100415.00;;;;5124099;27;20205;-47
2022/06/22 09:00:54;;;;;;;2.30;2.10;;;22.30;57.90;23.10;100401.00;;;;5110035;28;20196;-46
2022/06/22 09:03:57;;;;;;;6.13;3.00;;;22.30;58.20;23.10;100394.00;;;;5125034;27;20179;-45
2022/06/22 09:06:49;;;;;;;4.37;2.97;;;22.30;58.30;23.10;100345.00;;;;5110028;28;20159;-46
2022/06/22 09:10:01;;;;;;;4.73;2.77;;;22.40;58.50;23.20;100398.00;;;;5050857;28;20244;-46
2022/06/22 09:12:48;;;;;;;4.50;3.00;;;22.40;59.10;23.20;100403.00;;;;5067572;28;20170;-47
2022/06/22 09:15:33;;;;;;;4.40;2.70;;;22.40;59.30;23.20;100391.00;;;;5069162;28;20189;-47
2022/06/22 09:18:01;;;;;;;2.53;2.33;;;22.50;59.10;23.20;100399.00;;;;5071214;28;20589;-45
2022/06/22 09:20:44;;;;;;;3.53;2.70;;;22.50;58.70;23.30;100397.00;;;;5109498;28;20177;-46
2022/06/22 09:23:37;;;;;;;4.83;2.70;;;22.50;58.70;23.30;100395.00;;;;5124195;27;20176;-45
2022/06/22 09:26:29;;;;;;;4.33;2.70;;;22.60;58.60;23.30;100394.00;;;;5124398;27;20231;-46
2022/06/22 09:29:13;;;;;;;5.60;2.70;;;22.60;58.40;23.30;100395.00;;;;5104349;28;20145;-45
2022/06/22 09:32:21;;;;;;;4.83;2.50;;;22.60;58.40;23.40;100380.00;;;;5105224;28;20665;-46
2022/06/22 09:35:24;;;;;;;3.07;2.30;;;22.60;58.40;23.40;100392.00;;;;5094627;28;20229;-46
2022/06/22 09:38:11;;;;;;;2.83;2.40;;;22.60;58.20;23.40;100394.00;;;;5097003;28;20564;-47
2022/06/22 09:40:55;;;;;;;2.67;2.40;;;22.70;58.20;23.40;100388.00;;;;5103455;28;20187;-47
2022/06/22 09:43:45;;;;;;;3.37;2.60;;;22.70;58.20;23.40;100391.00;;;;5028411;28;20172;-46
2022/06/22 09:47:08;;;;;;;3.20;2.30;;;22.70;58.20;23.50;100385.00;;;;5088866;28;20242;-46
2022/06/22 09:50:17;;;;;;;3.30;2.10;;;22.80;58.30;23.50;100386.00;;;;5065725;28;20170;-46
2022/06/22 09:53:31;;;;;;;2.87;2.30;;;22.90;58.40;23.50;100375.00;;;;5068837;28;20173;-47
2022/06/22 09:56:39;;;;;;;5.40;2.47;;;22.90;58.40;23.60;100372.00;;;;5087424;28;20180;-46
2022/06/22 09:59:40;;;;;;;3.70;2.13;;;23.00;58.50;23.60;100362.00;;;;5099307;28;20180;-47
2022/06/22 10:02:33;;;;;;;4.87;2.50;;;22.90;58.20;23.60;100371.00;;;;5070685;28;20168;-45
2022/06/22 10:05:24;;;;;;;2.73;2.50;;;22.90;58.10;23.60;100367.00;;;;5088768;28;20185;-47
2022/06/22 10:08:09;;;;;;;3.00;2.30;;;23.00;57.90;23.70;100370.00;;;;5088424;28;20557;-47
2022/06/22 10:11:00;;;;;;;3.87;2.53;;;23.00;57.70;23.70;100361.00;;;;5070987;28;20236;-47
2022/06/22 10:13:57;;;;;;;2.60;2.10;;;23.00;57.70;23.70;100363.00;;;;5088516;28;20209;-47
2022/06/22 10:16:53;;;;;;;2.50;2.00;;;23.00;57.50;23.70;100357.00;;;;5087443;28;20157;-45
2022/06/22 10:19:31;;;;;;;2.47;2.23;;;23.00;57.20;23.70;100358.00;;;;5087556;28;20145;-48
2022/06/22 10:22:38;;;;;;;2.33;2.13;;;23.10;57.20;23.80;100354.00;;;;5087609;28;20163;-45
2022/06/22 10:25:12;;;;;;;2.40;2.03;;;23.10;57.30;23.80;100342.00;;;;5083930;28;20270;-45
2022/06/22 10:28:22;;;;;;;2.57;2.30;;;23.10;57.30;23.90;100344.00;;;;5088632;28;20179;-46
2022/06/22 10:31:00;;;;;;;2.77;2.33;;;23.20;57.20;23.90;100347.00;;;;5083626;28;20408;-47
2022/06/22 10:33:56;;;;;;;2.83;2.43;;;23.20;57.00;23.90;100335.00;;;;5080354;28;20204;-46
2022/06/22 10:36:31;;;;;;;2.60;2.20;;;23.20;57.20;23.90;100331.00;;;;5096906;28;20192;-46
2022/06/22 10:39:21;;;;;;;3.27;2.30;;;23.20;57.20;24.00;100324.00;;;;5092500;28;20823;-46
2022/06/22 10:45:36;;;;;;;2.90;2.50;;;23.30;57.30;24.00;100322.00;;;;5125032;27;20280;-47
2022/06/22 10:48:34;;;;;;;2.77;2.30;;;23.30;57.00;24.10;100319.00;;;;5112103;28;20210;-47
2022/06/22 10:51:15;;;;;;;2.27;2.10;;;23.40;56.90;24.10;100324.00;;;;5128961;27;20168;-48
2022/06/22 10:54:25;;;;;;;2.37;2.13;;;23.40;57.00;24.10;100346.00;;;;5120939;28;20218;-46
2022/06/22 10:57:07;;;;;;;2.60;2.20;;;23.40;57.10;24.10;100338.00;;;;5128175;27;20172;-46
2022/06/22 11:00:15;;;;;;;2.30;2.10;;;23.50;57.10;24.20;100310.00;;;;5128172;27;20221;-46
2022/06/22 11:03:09;;;;;;;3.23;2.40;;;23.50;57.10;24.20;100335.00;;;;5103854;27;20230;-47
2022/06/22 11:05:53;;;;;;;2.40;2.20;;;23.60;57.10;24.20;100333.00;;;;5112620;27;20172;-47
2022/06/22 11:08:35;;;;;;;2.57;2.10;;;23.60;57.10;24.30;100334.00;;;;5112119;28;20157;-48
2022/06/22 11:11:37;;;;;;;2.13;2.00;;;23.60;57.10;24.30;100335.00;;;;5126811;27;20156;-47
2022/06/22 11:14:49;;;;;;;2.50;2.30;;;23.60;57.10;24.40;100331.00;;;;5112017;28;20204;-47
2022/06/22 11:17:48;;;;;;;2.13;2.00;;;23.70;57.30;24.40;100325.00;;;;5111711;28;20160;-48
2022/06/22 11:20:39;;;;;;;2.50;2.30;;;23.80;57.30;24.40;100318.00;;;;5124664;27;20155;-46
2022/06/22 11:23:16;;;;;;;2.60;2.40;;;23.80;57.80;24.50;100344.00;;;;5126804;27;20180;-47
2022/06/22 11:32:27;;;;;;;2.40;2.20;;;23.90;58.00;24.60;100331.00;;;;5124078;28;20168;-46
2022/06/22 11:35:37;;;;;;;2.57;2.03;;;24.00;58.20;24.70;100319.00;;;;5123932;28;20840;-47
2022/06/22 11:38:12;;;;;;;3.23;2.30;;;24.00;58.80;24.70;100341.00;;;;5069536;28;20186;-49
2022/06/22 11:41:02;;;;;;;3.57;2.40;;;24.10;58.50;24.70;100341.00;;;;5068869;28;20153;-47
2022/06/22 11:44:05;;;;;;;4.43;2.63;;;24.00;58.00;24.80;100343.00;;;;5028637;28;20194;-48
2022/06/22 11:46:45;;;;;;;3.73;2.20;;;24.10;58.70;24.80;100355.00;;;;5106335;28;20192;-48
2022/06/22 11:49:32;;;;;;;3.10;2.40;;;24.20;58.90;24.90;100349.00;;;;5096034;28;20212;-47
2022/06/22 11:52:22;;;;;;;3.67;2.47;;;24.30;59.00;25.00;100349.00;;;;5069384;28;20169;-48
2022/06/22 11:55:16;;;;;;;3.57;2.40;;;24.40;59.40;25.00;100354.00;;;;5068387;28;20847;-47
2022/06/22 11:58:06;;;;;;;6.10;2.30;;;24.40;59.20;25.10;100360.00;;;;5067852;28;20223;-46
2022/06/22 12:01:03;;;;;;;4.13;2.73;;;24.40;59.10;25.10;100357.00;;;;5096966;28;20172;-47
2022/06/22 12:04:17;;;;;;;4.93;2.50;;;24.40;59.20;25.20;100363.00;;;;5110054;28;20188;-46
2022/06/22 12:06:59;;;;;;;5.30;2.40;;;24.50;58.90;25.20;100347.00;;;;5093075;28;20671;-47
2022/06/22 12:09:36;;;;;;;2.40;2.20;;;24.50;58.60;25.20;100351.00;;;;5067689;28;20161;-47